sensor_id;sensor_type;location;lat;lon;timestamp;pressure;altitude;pressure_sealevel;temperature;humidity
76808;BME280;65758;45.458;11.062;2023-05-24T00:00:33;100608.69;;;22.46;50.63
76808;BME280;65758;45.458;11.062;2023-05-24T00:03:00;100606.41;;;22.46;50.60
76808;BME280;65758;45.458;11.062;2023-05-24T00:05:30;100606.77;;;22.46;50.62
76808;BME280;65758;45.458;11.062;2023-05-24T00:07:57;100607.23;;;22.45;50.44
76808;BME280;65758;45.458;11.062;2023-05-24T00:10:24;100605.15;;;22.43;50.43
76808;BME280;65758;45.458;11.062;2023-05-24T00:12:51;100603.45;;;22.39;50.48
76808;BME280;65758;45.458;11.062;2023-05-24T00:15:18;100605.11;;;22.36;50.42
76808;BME280;65758;45.458;11.062;2023-05-24T00:17:45;100604.38;;;22.31;50.49
76808;BME280;65758;45.458;11.062;2023-05-24T00:20:12;100603.84;;;22.27;50.53
76808;BME280;65758;45.458;11.062;2023-05-24T00:22:40;100604.64;;;22.26;50.64
76808;BME280;65758;45.458;11.062;2023-05-24T00:25:08;100604.13;;;22.24;50.55
76808;BME280;65758;45.458;11.062;2023-05-24T00:27:35;100605.22;;;22.22;50.59
76808;BME280;65758;45.458;11.062;2023-05-24T00:30:06;100603.79;;;22.22;50.72
76808;BME280;65758;45.458;11.062;2023-05-24T00:32:33;100604.85;;;22.21;50.61
76808;BME280;65758;45.458;11.062;2023-05-24T00:35:00;100604.86;;;22.20;50.76
76808;BME280;65758;45.458;11.062;2023-05-24T00:37:26;100605.56;;;22.16;50.71
76808;BME280;65758;45.458;11.062;2023-05-24T00:39:55;100602.67;;;22.09;50.90
76808;BME280;65758;45.458;11.062;2023-05-24T00:42:22;100604.09;;;22.02;51.13
76808;BME280;65758;45.458;11.062;2023-05-24T00:44:48;100604.29;;;21.97;51.28
76808;BME280;65758;45.458;11.062;2023-05-24T00:47:15;100604.98;;;21.92;51.43
76808;BME280;65758;45.458;11.062;2023-05-24T00:49:45;100599.12;;;21.88;51.47
76808;BME280;65758;45.458;11.062;2023-05-24T00:52:12;100598.64;;;21.83;51.63
76808;BME280;65758;45.458;11.062;2023-05-24T00:54:39;100602.65;;;21.80;51.83
76808;BME280;65758;45.458;11.062;2023-05-24T00:57:06;100601.17;;;21.76;51.88
76808;BME280;65758;45.458;11.062;2023-05-24T00:59:34;100599.61;;;21.72;52.01
76808;BME280;65758;45.458;11.062;2023-05-24T01:02:03;100596.50;;;21.68;52.08
76808;BME280;65758;45.458;11.062;2023-05-24T01:04:30;100597.47;;;21.67;52.15
76808;BME280;65758;45.458;11.062;2023-05-24T01:07:23;100592.23;;;21.66;52.03
76808;BME280;65758;45.458;11.062;2023-05-24T01:10:15;100589.92;;;21.65;52.09
76808;BME280;65758;45.458;11.062;2023-05-24T01:13:00;100586.02;;;21.62;52.04
76808;BME280;65758;45.458;11.062;2023-05-24T01:15:48;100582.51;;;21.59;52.19
76808;BME280;65758;45.458;11.062;2023-05-24T01:18:27;100579.88;;;21.53;52.30
76808;BME280;65758;45.458;11.062;2023-05-24T01:26:45;100577.68;;;21.44;52.44
76808;BME280;65758;45.458;11.062;2023-05-24T01:29:14;100576.98;;;21.40;52.67
76808;BME280;65758;45.458;11.062;2023-05-24T01:31:41;100576.39;;;21.34;52.76
76808;BME280;65758;45.458;11.062;2023-05-24T01:34:10;100572.95;;;21.30;52.81
76808;BME280;65758;45.458;11.062;2023-05-24T01:36:38;100573.70;;;21.28;52.83
76808;BME280;65758;45.458;11.062;2023-05-24T01:39:05;100575.22;;;21.27;53.03
76808;BME280;65758;45.458;11.062;2023-05-24T01:41:37;100577.98;;;21.29;53.05
76808;BME280;65758;45.458;11.062;2023-05-24T01:44:26;100579.23;;;21.30;53.17
76808;BME280;65758;45.458;11.062;2023-05-24T01:47:08;100577.28;;;21.28;53.17
76808;BME280;65758;45.458;11.062;2023-05-24T01:49:41;100578.71;;;21.25;53.24
76808;BME280;65758;45.458;11.062;2023-05-24T01:52:15;100581.39;;;21.22;53.32
76808;BME280;65758;45.458;11.062;2023-05-24T01:54:47;100580.28;;;21.21;53.36
76808;BME280;65758;45.458;11.062;2023-05-24T01:57:20;100587.05;;;21.18;53.27
76808;BME280;65758;45.458;11.062;2023-05-24T01:59:49;100589.50;;;21.14;53.30
76808;BME280;65758;45.458;11.062;2023-05-24T02:02:17;100587.91;;;21.17;53.38
76808;BME280;65758;45.458;11.062;2023-05-24T02:04:45;100584.98;;;21.22;53.38
76808;BME280;65758;45.458;11.062;2023-05-24T02:07:12;100587.20;;;21.27;53.27
76808;BME280;65758;45.458;11.062;2023-05-24T02:09:39;100584.26;;;21.30;53.12
76808;BME280;65758;45.458;11.062;2023-05-24T02:12:06;100586.00;;;21.33;53.14
76808;BME280;65758;45.458;11.062;2023-05-24T02:14:34;100581.37;;;21.36;53.09
76808;BME280;65758;45.458;11.062;2023-05-24T02:17:04;100579.71;;;21.39;53.09
76808;BME280;65758;45.458;11.062;2023-05-24T02:19:31;100578.31;;;21.39;53.03
76808;BME280;65758;45.458;11.062;2023-05-24T02:22:00;100580.20;;;21.37;52.99
76808;BME280;65758;45.458;11.062;2023-05-24T02:24:28;100586.14;;;21.34;53.16
76808;BME280;65758;45.458;11.062;2023-05-24T02:26:55;100588.12;;;21.32;53.40
76808;BME280;65758;45.458;11.062;2023-05-24T02:29:22;100585.20;;;21.30;53.52
76808;BME280;65758;45.458;11.062;2023-05-24T02:31:49;100584.45;;;21.29;53.44
76808;BME280;65758;45.458;11.062;2023-05-24T02:34:22;100583.79;;;21.24;53.47
76808;BME280;65758;45.458;11.062;2023-05-24T02:36:50;100582.02;;;21.20;53.61
76808;BME280;65758;45.458;11.062;2023-05-24T02:39:16;100580.23;;;21.17;53.65
76808;BME280;65758;45.458;11.062;2023-05-24T02:41:43;100576.02;;;21.16;53.82
76808;BME280;65758;45.458;11.062;2023-05-24T02:44:10;100577.55;;;21.14;53.82
76808;BME280;65758;45.458;11.062;2023-05-24T02:46:37;100578.34;;;21.13;53.98
76808;BME280;65758;45.458;11.062;2023-05-24T02:49:04;100583.70;;;21.11;53.97
76808;BME280;65758;45.458;11.062;2023-05-24T02:51:31;100585.48;;;21.08;54.13
76808;BME280;65758;45.458;11.062;2023-05-24T02:53:58;100591.20;;;21.06;54.07
76808;BME280;65758;45.458;11.062;2023-05-24T02:56:27;100590.56;;;21.04;54.01
76808;BME280;65758;45.458;11.062;2023-05-24T02:58:55;100593.38;;;21.05;54.05
76808;BME280;65758;45.458;11.062;2023-05-24T03:01:22;100595.67;;;21.05;54.08
76808;BME280;65758;45.458;11.062;2023-05-24T03:03:50;100597.98;;;21.04;53.97
76808;BME280;65758;45.458;11.062;2023-05-24T03:06:18;100597.39;;;21.05;54.07
76808;BME280;65758;45.458;11.062;2023-05-24T03:08:45;100593.65;;;21.02;54.64
76808;BME280;65758;45.458;11.062;2023-05-24T03:11:12;100596.74;;;21.00;54.99
76808;BME280;65758;45.458;11.062;2023-05-24T03:13:40;100596.15;;;20.98;54.97
76808;BME280;65758;45.458;11.062;2023-05-24T03:16:07;100601.02;;;20.96;54.96
76808;BME280;65758;45.458;11.062;2023-05-24T03:18:34;100601.83;;;20.94;55.13
76808;BME280;65758;45.458;11.062;2023-05-24T03:21:01;100602.39;;;20.90;55.51
76808;BME280;65758;45.458;11.062;2023-05-24T03:23:28;100605.11;;;20.87;55.73
76808;BME280;65758;45.458;11.062;2023-05-24T03:25:55;100607.56;;;20.82;55.96
76808;BME280;65758;45.458;11.062;2023-05-24T03:28:23;100606.71;;;20.78;55.73
76808;BME280;65758;45.458;11.062;2023-05-24T03:30:49;100610.41;;;20.77;55.84
76808;BME280;65758;45.458;11.062;2023-05-24T03:33:17;100608.27;;;20.74;56.06
76808;BME280;65758;45.458;11.062;2023-05-24T03:35:44;100613.23;;;20.73;56.33
76808;BME280;65758;45.458;11.062;2023-05-24T03:38:11;100616.05;;;20.70;56.26
76808;BME280;65758;45.458;11.062;2023-05-24T03:40:38;100626.77;;;20.67;56.16
76808;BME280;65758;45.458;11.062;2023-05-24T03:43:11;100629.06;;;20.65;56.43
76808;BME280;65758;45.458;11.062;2023-05-24T03:45:43;100635.39;;;20.62;56.37
76808;BME280;65758;45.458;11.062;2023-05-24T03:48:10;100638.92;;;20.60;56.50
76808;BME280;65758;45.458;11.062;2023-05-24T03:50:37;100638.51;;;20.58;56.71
76808;BME280;65758;45.458;11.062;2023-05-24T03:53:04;100643.77;;;20.59;56.58
76808;BME280;65758;45.458;11.062;2023-05-24T03:55:31;100640.87;;;20.59;56.70
76808;BME280;65758;45.458;11.062;2023-05-24T03:57:57;100647.90;;;20.58;56.72
76808;BME280;65758;45.458;11.062;2023-05-24T04:00:24;100648.56;;;20.58;56.83
76808;BME280;65758;45.458;11.062;2023-05-24T04:02:51;100649.48;;;20.56;56.89
76808;BME280;65758;45.458;11.062;2023-05-24T04:05:21;100650.05;;;20.54;56.90
76808;BME280;65758;45.458;11.062;2023-05-24T04:07:52;100653.84;;;20.50;57.10
76808;BME280;65758;45.458;11.062;2023-05-24T04:10:19;100655.09;;;20.46;56.98
76808;BME280;65758;45.458;11.062;2023-05-24T04:12:47;100655.20;;;20.41;57.13
76808;BME280;65758;45.458;11.062;2023-05-24T04:15:13;100654.02;;;20.38;57.24
76808;BME280;65758;45.458;11.062;2023-05-24T04:17:42;100654.85;;;20.37;57.23
76808;BME280;65758;45.458;11.062;2023-05-24T04:20:10;100658.20;;;20.36;57.28
76808;BME280;65758;45.458;11.062;2023-05-24T04:22:38;100658.00;;;20.34;57.26
76808;BME280;65758;45.458;11.062;2023-05-24T04:25:05;100656.08;;;20.33;57.32
76808;BME280;65758;45.458;11.062;2023-05-24T04:27:33;100658.14;;;20.30;57.34
76808;BME280;65758;45.458;11.062;2023-05-24T04:30:02;100655.77;;;20.26;57.43
76808;BME280;65758;45.458;11.062;2023-05-24T04:32:29;100655.21;;;20.25;57.54
76808;BME280;65758;45.458;11.062;2023-05-24T04:34:56;100657.66;;;20.24;57.52
76808;BME280;65758;45.458;11.062;2023-05-24T04:37:23;100657.83;;;20.25;57.60
76808;BME280;65758;45.458;11.062;2023-05-24T04:39:50;100653.98;;;20.28;57.65
76808;BME280;65758;45.458;11.062;2023-05-24T04:42:17;100658.70;;;20.32;57.70
76808;BME280;65758;45.458;11.062;2023-05-24T04:44:44;100662.00;;;20.35;57.67
76808;BME280;65758;45.458;11.062;2023-05-24T04:47:10;100666.30;;;20.36;57.73
76808;BME280;65758;45.458;11.062;2023-05-24T04:49:38;100669.02;;;20.39;57.70
76808;BME280;65758;45.458;11.062;2023-05-24T04:52:05;100671.08;;;20.43;57.62
76808;BME280;65758;45.458;11.062;2023-05-24T04:54:33;100671.92;;;20.47;57.68
76808;BME280;65758;45.458;11.062;2023-05-24T04:56:59;100673.70;;;20.53;57.74
76808;BME280;65758;45.458;11.062;2023-05-24T04:59:26;100674.78;;;20.57;57.74
76808;BME280;65758;45.458;11.062;2023-05-24T05:01:53;100680.41;;;20.59;57.66
76808;BME280;65758;45.458;11.062;2023-05-24T05:04:20;100680.95;;;20.61;57.59
76808;BME280;65758;45.458;11.062;2023-05-24T05:06:47;100683.02;;;20.66;57.69
76808;BME280;65758;45.458;11.062;2023-05-24T05:09:14;100677.90;;;20.71;57.64
76808;BME280;65758;45.458;11.062;2023-05-24T05:11:41;100679.20;;;20.79;57.77
76808;BME280;65758;45.458;11.062;2023-05-24T05:14:08;100679.07;;;20.85;57.81
76808;BME280;65758;45.458;11.062;2023-05-24T05:16:36;100677.33;;;20.90;57.67
76808;BME280;65758;45.458;11.062;2023-05-24T05:19:04;100679.95;;;21.03;57.62
76808;BME280;65758;45.458;11.062;2023-05-24T05:21:31;100680.98;;;21.22;57.61
76808;BME280;65758;45.458;11.062;2023-05-24T05:23:59;100685.86;;;21.42;57.18
76808;BME280;65758;45.458;11.062;2023-05-24T05:26:27;100687.65;;;21.65;56.83
76808;BME280;65758;45.458;11.062;2023-05-24T05:28:56;100685.20;;;21.85;56.35
76808;BME280;65758;45.458;11.062;2023-05-24T05:31:23;100683.70;;;22.04;55.77
76808;BME280;65758;45.458;11.062;2023-05-24T05:33:50;100684.58;;;22.24;55.15
76808;BME280;65758;45.458;11.062;2023-05-24T05:36:17;100683.04;;;22.44;54.91
76808;BME280;65758;45.458;11.062;2023-05-24T05:38:44;100684.30;;;22.67;54.44
76808;BME280;65758;45.458;11.062;2023-05-24T05:41:12;100691.70;;;22.89;54.19
76808;BME280;65758;45.458;11.062;2023-05-24T05:43:38;100687.62;;;23.11;53.97
76808;BME280;65758;45.458;11.062;2023-05-24T05:46:05;100690.71;;;23.30;53.40
76808;BME280;65758;45.458;11.062;2023-05-24T05:48:32;100688.13;;;23.44;53.09
76808;BME280;65758;45.458;11.062;2023-05-24T05:50:59;100687.11;;;23.55;52.89
76808;BME280;65758;45.458;11.062;2023-05-24T05:53:26;100688.83;;;23.65;52.36
76808;BME280;65758;45.458;11.062;2023-05-24T05:55:53;100689.20;;;23.72;51.85
76808;BME280;65758;45.458;11.062;2023-05-24T05:58:20;100682.77;;;23.77;52.02
76808;BME280;65758;45.458;11.062;2023-05-24T06:00:46;100687.02;;;23.80;51.85
76808;BME280;65758;45.458;11.062;2023-05-24T06:03:13;100691.29;;;23.81;52.03
76808;BME280;65758;45.458;11.062;2023-05-24T06:05:41;100689.48;;;23.83;51.74
76808;BME280;65758;45.458;11.062;2023-05-24T06:08:07;100689.38;;;23.85;51.47
76808;BME280;65758;45.458;11.062;2023-05-24T06:10:34;100695.79;;;23.88;51.53
76808;BME280;65758;45.458;11.062;2023-05-24T06:13:02;100699.09;;;23.90;51.42
76808;BME280;65758;45.458;11.062;2023-05-24T06:15:30;100694.30;;;23.91;51.44
76808;BME280;65758;45.458;11.062;2023-05-24T06:17:59;100690.60;;;23.94;51.45
76808;BME280;65758;45.458;11.062;2023-05-24T06:20:28;100687.95;;;23.96;51.26
76808;BME280;65758;45.458;11.062;2023-05-24T06:22:55;100690.61;;;24.04;51.26
76808;BME280;65758;45.458;11.062;2023-05-24T06:25:23;100690.57;;;24.13;51.12
76808;BME280;65758;45.458;11.062;2023-05-24T06:27:50;100690.96;;;24.25;51.09
76808;BME280;65758;45.458;11.062;2023-05-24T06:30:19;100690.42;;;24.41;50.83
76808;BME280;65758;45.458;11.062;2023-05-24T06:32:46;100688.50;;;24.60;50.65
76808;BME280;65758;45.458;11.062;2023-05-24T06:35:13;100689.92;;;24.77;50.32
76808;BME280;65758;45.458;11.062;2023-05-24T06:37:40;100691.20;;;24.94;50.03
76808;BME280;65758;45.458;11.062;2023-05-24T06:40:07;100692.18;;;25.10;50.00
76808;BME280;65758;45.458;11.062;2023-05-24T06:42:38;100691.48;;;25.29;49.68
76808;BME280;65758;45.458;11.062;2023-05-24T06:45:05;100692.32;;;25.47;49.20
76808;BME280;65758;45.458;11.062;2023-05-24T06:47:34;100693.08;;;25.64;48.83
76808;BME280;65758;45.458;11.062;2023-05-24T06:50:02;100690.59;;;25.80;48.38
76808;BME280;65758;45.458;11.062;2023-05-24T06:52:32;100696.09;;;25.95;48.17
76808;BME280;65758;45.458;11.062;2023-05-24T06:54:58;100691.02;;;26.08;47.93
76808;BME280;65758;45.458;11.062;2023-05-24T06:57:25;100690.77;;;26.20;47.59
76808;BME280;65758;45.458;11.062;2023-05-24T06:59:52;100691.36;;;26.29;47.41
76808;BME280;65758;45.458;11.062;2023-05-24T07:02:19;100690.61;;;26.39;47.19
76808;BME280;65758;45.458;11.062;2023-05-24T07:04:52;100693.34;;;26.52;46.83
76808;BME280;65758;45.458;11.062;2023-05-24T07:07:19;100693.55;;;26.66;46.75
76808;BME280;65758;45.458;11.062;2023-05-24T07:09:46;100690.81;;;26.83;46.29
76808;BME280;65758;45.458;11.062;2023-05-24T07:12:13;100691.60;;;26.95;46.21
76808;BME280;65758;45.458;11.062;2023-05-24T07:14:40;100688.33;;;27.03;45.91
76808;BME280;65758;45.458;11.062;2023-05-24T07:17:07;100688.63;;;27.14;45.72
76808;BME280;65758;45.458;11.062;2023-05-24T07:19:34;100689.96;;;27.25;45.74
76808;BME280;65758;45.458;11.062;2023-05-24T07:22:01;100691.30;;;27.38;45.26
76808;BME280;65758;45.458;11.062;2023-05-24T07:24:28;100689.06;;;27.50;45.14
76808;BME280;65758;45.458;11.062;2023-05-24T07:26:55;100692.38;;;27.59;44.61
76808;BME280;65758;45.458;11.062;2023-05-24T07:29:24;100692.77;;;27.67;44.37
76808;BME280;65758;45.458;11.062;2023-05-24T07:31:53;100693.58;;;27.79;44.44
76808;BME280;65758;45.458;11.062;2023-05-24T07:34:21;100692.89;;;27.93;44.12
76808;BME280;65758;45.458;11.062;2023-05-24T07:36:49;100689.70;;;28.06;43.75
76808;BME280;65758;45.458;11.062;2023-05-24T07:39:16;100690.45;;;28.19;43.61
76808;BME280;65758;45.458;11.062;2023-05-24T07:41:43;100685.77;;;28.32;43.37
76808;BME280;65758;45.458;11.062;2023-05-24T07:44:10;100689.44;;;28.46;43.10
76808;BME280;65758;45.458;11.062;2023-05-24T07:46:37;100682.29;;;28.59;42.99
76808;BME280;65758;45.458;11.062;2023-05-24T07:49:05;100684.11;;;28.68;43.06
76808;BME280;65758;45.458;11.062;2023-05-24T07:51:32;100689.33;;;28.77;42.93
76808;BME280;65758;45.458;11.062;2023-05-24T07:53:59;100687.23;;;28.82;42.97
76808;BME280;65758;45.458;11.062;2023-05-24T07:56:26;100684.76;;;28.91;42.87
76808;BME280;65758;45.458;11.062;2023-05-24T07:58:53;100687.27;;;29.04;42.72
76808;BME280;65758;45.458;11.062;2023-05-24T08:01:24;100687.86;;;29.17;42.51
76808;BME280;65758;45.458;11.062;2023-05-24T08:03:51;100692.02;;;29.30;42.19
76808;BME280;65758;45.458;11.062;2023-05-24T08:06:19;100692.44;;;29.40;41.74
76808;BME280;65758;45.458;11.062;2023-05-24T08:08:46;100692.40;;;29.47;41.50
76808;BME280;65758;45.458;11.062;2023-05-24T08:11:13;100691.35;;;29.57;41.16
76808;BME280;65758;45.458;11.062;2023-05-24T08:13:39;100688.23;;;29.63;40.89
76808;BME280;65758;45.458;11.062;2023-05-24T08:16:07;100686.99;;;29.70;40.40
76808;BME280;65758;45.458;11.062;2023-05-24T08:18:34;100688.13;;;29.73;40.49
76808;BME280;65758;45.458;11.062;2023-05-24T08:21:00;100683.86;;;29.78;40.19
76808;BME280;65758;45.458;11.062;2023-05-24T08:23:28;100688.85;;;29.85;40.50
76808;BME280;65758;45.458;11.062;2023-05-24T08:25:58;100685.97;;;29.99;40.10
76808;BME280;65758;45.458;11.062;2023-05-24T08:28:25;100688.92;;;30.12;39.78
76808;BME280;65758;45.458;11.062;2023-05-24T08:30:53;100689.84;;;30.18;39.44
76808;BME280;65758;45.458;11.062;2023-05-24T08:33:20;100686.70;;;30.19;39.31
76808;BME280;65758;45.458;11.062;2023-05-24T08:35:51;100686.48;;;30.19;39.15
76808;BME280;65758;45.458;11.062;2023-05-24T08:38:18;100690.59;;;30.22;39.37
76808;BME280;65758;45.458;11.062;2023-05-24T08:40:46;100686.27;;;30.29;38.81
76808;BME280;65758;45.458;11.062;2023-05-24T08:43:14;100688.98;;;30.34;39.08
76808;BME280;65758;45.458;11.062;2023-05-24T08:45:41;100688.16;;;30.39;38.67
76808;BME280;65758;45.458;11.062;2023-05-24T08:48:09;100689.57;;;30.45;38.49
76808;BME280;65758;45.458;11.062;2023-05-24T08:50:36;100692.39;;;30.48;37.81
76808;BME280;65758;45.458;11.062;2023-05-24T08:53:05;100693.42;;;30.51;37.46
76808;BME280;65758;45.458;11.062;2023-05-24T08:55:32;100692.23;;;30.54;37.43
76808;BME280;65758;45.458;11.062;2023-05-24T08:58:00;100691.05;;;30.55;37.27
76808;BME280;65758;45.458;11.062;2023-05-24T09:00:27;100693.31;;;30.58;37.52
76808;BME280;65758;45.458;11.062;2023-05-24T09:02:56;100695.31;;;30.61;37.04
76808;BME280;65758;45.458;11.062;2023-05-24T09:05:24;100696.02;;;30.63;37.00
76808;BME280;65758;45.458;11.062;2023-05-24T09:07:54;100697.84;;;30.67;36.73
76808;BME280;65758;45.458;11.062;2023-05-24T09:10:21;100690.95;;;30.75;36.88
76808;BME280;65758;45.458;11.062;2023-05-24T09:12:54;100689.77;;;30.83;36.92
76808;BME280;65758;45.458;11.062;2023-05-24T09:15:21;100692.49;;;30.88;36.76
76808;BME280;65758;45.458;11.062;2023-05-24T09:17:48;100690.92;;;30.91;36.53
76808;BME280;65758;45.458;11.062;2023-05-24T09:20:16;100689.48;;;30.93;36.74
76808;BME280;65758;45.458;11.062;2023-05-24T09:22:44;100690.71;;;31.03;36.65
76808;BME280;65758;45.458;11.062;2023-05-24T09:25:13;100688.30;;;31.06;36.45
76808;BME280;65758;45.458;11.062;2023-05-24T09:27:42;100687.76;;;31.07;36.36
76808;BME280;65758;45.458;11.062;2023-05-24T09:30:13;100684.23;;;31.02;36.58
76808;BME280;65758;45.458;11.062;2023-05-24T09:32:53;100680.33;;;30.95;35.92
76808;BME280;65758;45.458;11.062;2023-05-24T09:35:20;100686.36;;;30.91;36.01
76808;BME280;65758;45.458;11.062;2023-05-24T09:37:47;100678.46;;;30.95;36.35
76808;BME280;65758;45.458;11.062;2023-05-24T09:40:18;100680.55;;;30.95;36.13
76808;BME280;65758;45.458;11.062;2023-05-24T09:42:46;100680.23;;;30.86;36.21
76808;BME280;65758;45.458;11.062;2023-05-24T09:45:15;100681.09;;;30.75;36.37
76808;BME280;65758;45.458;11.062;2023-05-24T09:47:42;100682.23;;;30.66;36.38
76808;BME280;65758;45.458;11.062;2023-05-24T09:50:15;100683.09;;;30.63;36.48
76808;BME280;65758;45.458;11.062;2023-05-24T09:52:43;100683.91;;;30.65;36.79
76808;BME280;65758;45.458;11.062;2023-05-24T09:55:15;100682.52;;;30.65;36.94
76808;BME280;65758;45.458;11.062;2023-05-24T09:57:43;100686.40;;;30.62;37.06
76808;BME280;65758;45.458;11.062;2023-05-24T10:00:11;100687.90;;;30.67;36.98
76808;BME280;65758;45.458;11.062;2023-05-24T10:02:43;100688.36;;;30.75;36.86
76808;BME280;65758;45.458;11.062;2023-05-24T10:05:19;100687.27;;;30.83;36.88
76808;BME280;65758;45.458;11.062;2023-05-24T10:07:47;100690.98;;;30.85;36.90
76808;BME280;65758;45.458;11.062;2023-05-24T10:10:14;100689.65;;;30.94;36.77
76808;BME280;65758;45.458;11.062;2023-05-24T10:12:41;100685.74;;;31.01;36.60
76808;BME280;65758;45.458;11.062;2023-05-24T10:15:12;100686.94;;;31.03;36.59
76808;BME280;65758;45.458;11.062;2023-05-24T10:17:39;100687.20;;;31.02;36.64
76808;BME280;65758;45.458;11.062;2023-05-24T10:20:06;100684.10;;;31.07;36.88
76808;BME280;65758;45.458;11.062;2023-05-24T10:22:36;100684.11;;;31.10;36.40
76808;BME280;65758;45.458;11.062;2023-05-24T10:25:07;100687.56;;;31.09;36.13
76808;BME280;65758;45.458;11.062;2023-05-24T10:27:37;100680.95;;;31.12;36.62
76808;BME280;65758;45.458;11.062;2023-05-24T10:30:15;100678.46;;;31.20;36.59
76808;BME280;65758;45.458;11.062;2023-05-24T10:32:46;100679.10;;;31.29;36.33
76808;BME280;65758;45.458;11.062;2023-05-24T10:35:14;100681.05;;;31.37;36.07
76808;BME280;65758;45.458;11.062;2023-05-24T10:37:45;100682.71;;;31.40;35.63
76808;BME280;65758;45.458;11.062;2023-05-24T10:40:18;100681.59;;;31.43;35.65
76808;BME280;65758;45.458;11.062;2023-05-24T10:43:07;100681.19;;;31.46;35.55
76808;BME280;65758;45.458;11.062;2023-05-24T10:45:39;100684.86;;;31.48;35.51
76808;BME280;65758;45.458;11.062;2023-05-24T10:50:40;100685.85;;;31.58;35.31
76808;BME280;65758;45.458;11.062;2023-05-24T10:53:14;100685.33;;;31.61;34.95
76808;BME280;65758;45.458;11.062;2023-05-24T11:01:32;100685.80;;;31.89;34.63
76808;BME280;65758;45.458;11.062;2023-05-24T11:04:10;100680.77;;;32.06;33.93
76808;BME280;65758;45.458;11.062;2023-05-24T11:09:11;100677.88;;;32.15;33.80
76808;BME280;65758;45.458;11.062;2023-05-24T11:11:38;100676.41;;;32.21;33.85
76808;BME280;65758;45.458;11.062;2023-05-24T11:14:05;100669.65;;;32.20;33.54
76808;BME280;65758;45.458;11.062;2023-05-24T11:16:36;100668.36;;;32.24;33.85
76808;BME280;65758;45.458;11.062;2023-05-24T11:19:13;100666.25;;;32.12;33.84
76808;BME280;65758;45.458;11.062;2023-05-24T11:21:42;100662.60;;;31.89;34.26
76808;BME280;65758;45.458;11.062;2023-05-24T11:24:10;100657.14;;;31.91;34.24
76808;BME280;65758;45.458;11.062;2023-05-24T11:26:37;100654.09;;;31.92;34.03
76808;BME280;65758;45.458;11.062;2023-05-24T11:29:04;100651.91;;;31.89;34.34
76808;BME280;65758;45.458;11.062;2023-05-24T11:31:31;100645.98;;;31.83;34.09
76808;BME280;65758;45.458;11.062;2023-05-24T11:34:01;100653.09;;;31.91;34.03
76808;BME280;65758;45.458;11.062;2023-05-24T11:36:44;100646.28;;;32.02;33.89
76808;BME280;65758;45.458;11.062;2023-05-24T11:39:13;100640.80;;;32.07;33.95
76808;BME280;65758;45.458;11.062;2023-05-24T11:41:40;100636.30;;;32.16;33.56
76808;BME280;65758;45.458;11.062;2023-05-24T11:44:08;100632.86;;;32.21;33.87
76808;BME280;65758;45.458;11.062;2023-05-24T11:46:37;100631.36;;;32.14;34.28
76808;BME280;65758;45.458;11.062;2023-05-24T11:49:04;100626.80;;;32.07;34.20
76808;BME280;65758;45.458;11.062;2023-05-24T11:51:34;100625.66;;;32.10;34.60
76808;BME280;65758;45.458;11.062;2023-05-24T11:54:02;100625.52;;;32.19;34.56
76808;BME280;65758;45.458;11.062;2023-05-24T11:56:30;100616.41;;;32.28;34.62
76808;BME280;65758;45.458;11.062;2023-05-24T11:59:17;100608.67;;;32.30;34.43
76808;BME280;65758;45.458;11.062;2023-05-24T12:01:47;100613.49;;;32.20;34.35
76808;BME280;65758;45.458;11.062;2023-05-24T12:04:14;100610.16;;;32.04;34.33
76808;BME280;65758;45.458;11.062;2023-05-24T12:06:42;100607.95;;;31.91;34.39
76808;BME280;65758;45.458;11.062;2023-05-24T12:09:11;100600.24;;;31.78;34.44
76808;BME280;65758;45.458;11.062;2023-05-24T12:11:46;100595.91;;;31.84;34.26
76808;BME280;65758;45.458;11.062;2023-05-24T12:14:15;100595.21;;;31.93;33.97
76808;BME280;65758;45.458;11.062;2023-05-24T12:16:43;100592.33;;;31.98;33.93
76808;BME280;65758;45.458;11.062;2023-05-24T12:19:18;100583.54;;;31.88;33.91
76808;BME280;65758;45.458;11.062;2023-05-24T12:22:02;100590.28;;;31.81;33.78
76808;BME280;65758;45.458;11.062;2023-05-24T12:24:50;100589.91;;;31.75;33.69
76808;BME280;65758;45.458;11.062;2023-05-24T12:27:18;100591.82;;;31.81;33.51
76808;BME280;65758;45.458;11.062;2023-05-24T12:29:44;100586.89;;;31.85;33.20
76808;BME280;65758;45.458;11.062;2023-05-24T12:32:11;100587.36;;;31.93;32.91
76808;BME280;65758;45.458;11.062;2023-05-24T12:34:41;100589.27;;;32.00;33.14
76808;BME280;65758;45.458;11.062;2023-05-24T12:37:13;100593.02;;;32.04;33.36
76808;BME280;65758;45.458;11.062;2023-05-24T12:39:40;100593.52;;;32.08;33.52
76808;BME280;65758;45.458;11.062;2023-05-24T12:42:10;100596.35;;;32.08;34.02
76808;BME280;65758;45.458;11.062;2023-05-24T12:44:40;100593.17;;;32.11;33.67
76808;BME280;65758;45.458;11.062;2023-05-24T12:47:08;100594.90;;;32.12;34.09
76808;BME280;65758;45.458;11.062;2023-05-24T12:49:35;100593.19;;;32.12;34.32
76808;BME280;65758;45.458;11.062;2023-05-24T12:52:02;100592.98;;;32.14;34.58
76808;BME280;65758;45.458;11.062;2023-05-24T12:54:29;100584.49;;;32.18;34.54
76808;BME280;65758;45.458;11.062;2023-05-24T12:56:57;100584.59;;;32.15;34.76
76808;BME280;65758;45.458;11.062;2023-05-24T12:59:29;100578.08;;;32.13;34.96
76808;BME280;65758;45.458;11.062;2023-05-24T13:01:56;100572.42;;;32.14;35.19
76808;BME280;65758;45.458;11.062;2023-05-24T13:04:23;100565.33;;;32.19;35.27